Allagash, ME

6:19 AM EST on November 22, 2019 (GMT -0500)
Fort Kent Village | | Change Station
Active Advisory: Winter Weather Advisory

Elev 920 ft 47.23 °N, 68.60 °W | Updated 19 seconds ago

Snow
Snow
27 °F
Feels Like 20 °F
N
6
Wind Variable Wind from WNW
Gusts 9.0 mph

Today
High -- | Low -- °F
--% Chance of Precip.
Yesterday
High -- | Low -- °F
Precip. -- in
Pressure 29.70 in
Visibility 1.2 miles
Clouds Overcast 200 ft
Windchill 20 °F
Dew Point 26 °F
Humidity 97%
Rainfall 0.00 in
Snow Depth Not available.
6:49 AM 3:54 PM
Waning Crescent, 22% visible
METAR KFVE 221053Z AUTO 14013KT 1 1/4SM -SN BR OVC002 M03/M04 A2966 RMK AO2 SNB30 SLP056 P0000 T10331044
Pressure 29.70 in
Visibility 1.2 miles
Clouds Overcast 200 ft
Windchill 20 °F
Dew Point 26 °F
Humidity 97%
Rainfall 0.00 in
Snow Depth Not available.
6:49 AM 3:54 PM
Waning Crescent, 22% visible
METAR KFVE 221053Z AUTO 14013KT 1 1/4SM -SN BR OVC002 M03/M04 A2966 RMK AO2 SNB30 SLP056 P0000 T10331044

Get Your Daily Forecast Email!

Thanks for signing up!

Be on the lookout for a verification email in your inbox.

You'll start receiving severe weather alerts in your inbox..

×

10-Day Weather Forecast

Almanac

Astronomy

Nov. 22, 2019 Rise Set
Actual Time
Civil Twilight
Nautical Twilight
Astronomical Twilight
Moon
Length of Visible Light
Length of Day
Tomorrow will be .
, % of the Moon is Illuminated

Today's Extremes

State Highs State Lows

Community

WunderPhotos

Category 6

Welcome to Category 6. This is the collective home for Weather Underground's featured writeups by Dr. Jeff Masters (right), Bob Henson (left), Chris Burt, and other regular contributors.

Nearby

Air Quality

  Air Quality AQ Index Pollutant
Not available.

Snow Depth

Station Depth Elevation

Earthquake Activity

City Distance Mag. Time & Date
Minimum magnitude displayed is 2.5.

Coastal Water Temperatures

Place Temperature

Stations

Nearby Weather Stations

Station Location Temp. Windchill Dew Point Humidity Wind Precip. Elev Updated Type
                   

Watches & Warnings

Winter Weather Advisory
Issued: 4:34 AM EST Nov. 22, 2019 – National Weather Service

... Winter Weather Advisory remains in effect until 10 am EST this
morning...

* what... mixed precipitation expected. Total snow accumulations of
up to one inch, sleet accumulations of between one and two
tenths of an inch and ice accumulations of a light glaze
expected.

* Where... portions of Central Highlands, far eastern, far
northern and North Woods Maine.

* When... until 10 am EST this morning.

* Additional details... plan on slippery Road conditions. The
hazardous conditions could impact the morning commute.

Precautionary/preparedness actions...

A Winter Weather Advisory means that periods of snow, sleet or
freezing rain will cause travel difficulties. Expect slippery
roads and limited visibilities, and use caution while driving.

The latest Road conditions for Maine can be obtained by going to
newengland511.Org.



Duda